Time;durP1;ratioP1;P1;durP2;ratioP2;P2;SDS_P1;SDS_P2;PMS_P1;PMS_P2;Temp;Humidity;BMP_temperature;BMP_pressure;BME280_temperature;BME280_humidity;BME280_pressure;Samples;Min_cycle;Max_cycle;Signal;HPM_P1;HPM_P2
2022/02/21 00:00:30;;;;;;;;;4.67;4.00;;;;;-149.00;100.00;66333.84;5101433;27;45546;-77
2022/02/21 00:02:56;;;;;;;;;6.67;5.00;;;;;-149.00;100.00;66333.84;5101385;27;46068;-77
2022/02/21 00:05:21;;;;;;;;;8.33;5.33;;;;;-149.00;100.00;66333.84;5083235;27;45294;-77
2022/02/21 00:07:48;;;;;;;;;5.33;4.67;;;;;-149.00;100.00;66333.84;5101630;27;45310;-78
2022/02/21 00:10:15;;;;;;;;;5.67;5.33;;;;;-149.00;100.00;66333.84;5082818;27;47138;-79
2022/02/21 00:12:41;;;;;;;;;6.00;6.00;;;;;-149.00;100.00;66333.84;5100952;27;46155;-78
2022/02/21 00:15:07;;;;;;;;;3.67;3.33;;;;;-149.00;100.00;66333.84;5082724;27;45314;-78
2022/02/21 00:17:33;;;;;;;;;6.00;5.33;;;;;-149.00;100.00;66333.84;5101192;27;45238;-79
2022/02/21 00:19:58;;;;;;;;;3.00;3.00;;;;;-149.00;100.00;66333.84;5101120;27;45326;-78
2022/02/21 00:22:26;;;;;;;;;2.00;2.00;;;;;-149.00;100.00;66333.84;5082526;27;47223;-78
2022/02/21 00:24:55;;;;;;;;;9.67;5.67;;;;;-149.00;100.00;66333.84;5082757;27;45289;-78
2022/02/21 00:27:21;;;;;;;;;10.00;7.00;;;;;-149.00;100.00;66333.84;5082282;27;45391;-78
2022/02/21 00:29:47;;;;;;;;;7.33;6.00;;;;;-149.00;100.00;66333.84;5100857;27;45406;-79
2022/02/21 00:32:12;;;;;;;;;8.67;6.00;;;;;-149.00;100.00;66333.84;5100930;27;46535;-76
2022/02/21 00:34:38;;;;;;;;;8.00;4.67;;;;;-149.00;100.00;66333.84;5082251;27;45519;-77
2022/02/21 00:37:03;;;;;;;;;6.33;5.67;;;;;-149.00;100.00;66333.84;5101163;27;45348;-76
2022/02/21 00:39:29;;;;;;;;;6.33;4.33;;;;;-149.00;100.00;66333.84;5082096;27;45991;-76
2022/02/21 00:41:54;;;;;;;;;6.00;4.00;;;;;-149.00;100.00;66333.84;5082297;27;46826;-76
2022/02/21 00:44:20;;;;;;;;;2.67;2.00;;;;;-149.00;100.00;66333.84;5082293;27;45327;-77
2022/02/21 00:46:45;;;;;;;;;2.00;2.00;;;;;-149.00;100.00;66333.84;5100996;27;45317;-77
2022/02/21 00:49:10;;;;;;;;;1.00;1.00;;;;;-149.00;100.00;66333.84;5082594;27;47113;-76
2022/02/21 00:51:36;;;;;;;;;2.33;1.67;;;;;-149.00;100.00;66333.84;5082115;27;47205;-77
2022/02/21 00:54:01;;;;;;;;;1.00;1.00;;;;;-149.00;100.00;66333.84;5100663;27;45218;-77
2022/02/21 00:56:26;;;;;;;;;1.67;1.00;;;;;-149.00;100.00;66333.84;5100930;27;45186;-78
2022/02/21 00:58:52;;;;;;;;;2.00;2.00;;;;;-149.00;100.00;66333.84;5082127;27;47040;-77
2022/02/21 01:01:17;;;;;;;;;5.33;2.33;;;;;-149.00;100.00;66333.84;5100612;27;45239;-77
2022/02/21 01:03:43;;;;;;;;;5.00;2.00;;;;;-149.00;100.00;66333.84;5100727;27;45215;-77
2022/02/21 01:06:08;;;;;;;;;2.00;2.00;;;;;-149.00;100.00;66333.84;5101325;27;45320;-77
2022/02/21 01:08:34;;;;;;;;;4.00;2.67;;;;;-149.00;100.00;66333.84;5081805;27;46459;-77
2022/02/21 01:10:59;;;;;;;;;2.00;2.00;;;;;-149.00;100.00;66333.84;5082615;27;48421;-76
2022/02/21 01:13:25;;;;;;;;;4.00;2.33;;;;;-149.00;100.00;66333.84;5100902;27;45285;-79
2022/02/21 01:15:53;;;;;;;;;3.00;3.00;;;;;-149.00;100.00;66333.84;5100599;27;45647;-76
2022/02/21 01:18:18;;;;;;;;;5.00;2.00;;;;;-149.00;100.00;66333.84;5100338;27;45281;-77
2022/02/21 01:20:44;;;;;;;;;0.00;0.00;;;;;-149.00;100.00;66333.84;5081866;27;47704;-76
2022/02/21 01:23:09;;;;;;;;;0.67;0.67;;;;;-149.00;100.00;66333.84;5100147;27;45240;-78
2022/02/21 01:25:35;;;;;;;;;1.00;1.00;;;;;-149.00;100.00;66333.84;5081847;27;45430;-78
2022/02/21 01:28:00;;;;;;;;;3.33;2.33;;;;;-149.00;100.00;66333.84;5100006;27;45462;-78
2022/02/21 01:30:25;;;;;;;;;1.00;0.00;;;;;-149.00;100.00;66333.84;5082011;27;48065;-78
2022/02/21 01:32:51;;;;;;;;;2.00;1.00;;;;;-149.00;100.00;66333.84;5100213;27;45298;-78
2022/02/21 01:35:16;;;;;;;;;1.67;0.00;;;;;-149.00;100.00;66333.84;5100176;27;45283;-78
2022/02/21 01:37:42;;;;;;;;;2.00;0.67;;;;;-149.00;100.00;66333.84;5081601;27;47283;-77
2022/02/21 01:40:07;;;;;;;;;2.67;1.00;;;;;-149.00;100.00;66333.84;5099808;27;45319;-78
2022/02/21 01:42:35;;;;;;;;;4.67;1.00;;;;;-149.00;100.00;66333.84;5099928;27;45264;-79
2022/02/21 01:45:00;;;;;;;;;3.00;1.00;;;;;-149.00;100.00;66333.84;5100359;27;45234;-78
2022/02/21 01:47:25;;;;;;;;;0.00;0.00;;;;;-149.00;100.00;66333.84;5085183;27;46084;-78
2022/02/21 01:49:52;;;;;;;;;1.67;1.67;;;;;-149.00;100.00;66333.84;5085258;27;47395;-78
2022/02/21 01:52:18;;;;;;;;;2.00;2.00;;;;;-149.00;100.00;66333.84;5084897;27;45421;-78
2022/02/21 01:54:44;;;;;;;;;1.00;1.00;;;;;-149.00;100.00;66333.84;5103497;27;45283;-77
2022/02/21 01:57:11;;;;;;;;;2.00;1.00;;;;;-149.00;100.00;66333.84;5103175;27;45281;-78
2022/02/21 01:59:37;;;;;;;;;0.00;0.00;;;;;-149.00;100.00;66333.84;5084880;27;48177;-77
2022/02/21 02:02:04;;;;;;;;;0.00;0.00;;;;;-149.00;100.00;66333.84;5103449;27;45307;-78
2022/02/21 02:04:30;;;;;;;;;0.33;0.00;;;;;-149.00;100.00;66333.84;5085096;27;45317;-77
2022/02/21 02:06:56;;;;;;;;;1.33;0.00;;;;;-149.00;100.00;66333.84;5084679;27;45479;-78
2022/02/21 02:09:22;;;;;;;;;0.33;0.33;;;;;-149.00;100.00;66333.84;5084575;27;47006;-78
2022/02/21 02:11:48;;;;;;;;;2.00;1.00;;;;;-149.00;100.00;66333.84;5103051;27;45286;-78
2022/02/21 02:14:37;;;;;;;;;2.00;1.33;;;;;-149.00;100.00;66333.84;5103476;27;45321;-77
2022/02/21 02:17:14;;;;;;;;;0.67;0.67;;;;;-149.00;100.00;66333.84;5103203;27;45449;-78
2022/02/21 02:19:41;;;;;;;;;2.33;0.00;;;;;-149.00;100.00;66333.84;5064027;28;48160;-78
2022/02/21 02:22:11;;;;;;;;;0.00;0.00;;;;;-149.00;100.00;66333.84;5082553;28;45360;-77
2022/02/21 02:24:37;;;;;;;;;1.00;1.00;;;;;-149.00;100.00;66333.84;5082549;28;45169;-77
2022/02/21 02:27:03;;;;;;;;;1.00;1.00;;;;;-149.00;100.00;66333.84;5082207;28;45600;-77
2022/02/21 02:29:28;;;;;;;;;0.00;0.00;;;;;-149.00;100.00;66333.84;5080828;28;47572;-78
2022/02/21 02:31:55;;;;;;;;;1.00;1.00;;;;;-149.00;100.00;66333.84;5064197;28;45819;-79
2022/02/21 02:34:21;;;;;;;;;1.00;1.00;;;;;-149.00;100.00;66333.84;5082572;28;45256;-78
2022/02/21 02:36:48;;;;;;;;;3.00;3.00;;;;;-149.00;100.00;66333.84;5082245;28;45369;-78
2022/02/21 02:39:14;;;;;;;;;1.00;1.00;;;;;-149.00;100.00;66333.84;5081746;28;45488;-79
2022/02/21 02:41:44;;;;;;;;;2.00;2.00;;;;;-149.00;100.00;66333.84;5063575;28;45363;-79
2022/02/21 02:44:10;;;;;;;;;0.67;0.67;;;;;-149.00;100.00;66333.84;5082291;28;45273;-78
2022/02/21 02:46:36;;;;;;;;;0.67;0.67;;;;;-149.00;100.00;66333.84;5080591;28;46102;-78
2022/02/21 02:49:02;;;;;;;;;1.00;1.00;;;;;-149.00;100.00;66333.84;5063660;28;47217;-79
2022/02/21 02:51:27;;;;;;;;;1.33;1.33;;;;;-149.00;100.00;66333.84;5082195;28;45245;-78
2022/02/21 02:53:53;;;;;;;;;0.00;0.00;;;;;-149.00;100.00;66333.84;5080820;28;45316;-78
2022/02/21 02:56:19;;;;;;;;;0.33;0.33;;;;;-149.00;100.00;66333.84;5081218;28;45437;-78
2022/02/21 02:58:44;;;;;;;;;1.00;1.00;;;;;-149.00;100.00;66333.84;5081269;28;45495;-79
2022/02/21 03:01:10;;;;;;;;;1.00;1.00;;;;;-149.00;100.00;66333.84;5081852;28;45311;-78
2022/02/21 03:03:35;;;;;;;;;3.00;1.33;;;;;-149.00;100.00;66333.84;5063840;28;45494;-79
2022/02/21 03:06:00;;;;;;;;;2.33;2.00;;;;;-149.00;100.00;66333.84;5081887;28;45295;-78
2022/02/21 03:08:26;;;;;;;;;3.00;3.00;;;;;-149.00;100.00;66333.84;5081894;28;45354;-79
2022/02/21 03:10:51;;;;;;;;;4.33;2.33;;;;;-149.00;100.00;66333.84;5081528;28;45336;-79
2022/02/21 03:13:16;;;;;;;;;3.00;2.00;;;;;-149.00;100.00;66333.84;5063655;28;45319;-78
2022/02/21 03:15:42;;;;;;;;;5.33;3.00;;;;;-149.00;100.00;66333.84;5081696;28;45606;-78
2022/02/21 03:18:09;;;;;;;;;3.00;0.00;;;;;-149.00;100.00;66333.84;5071497;27;48069;-78
2022/02/21 03:20:35;;;;;;;;;4.00;2.00;;;;;-149.00;100.00;66333.84;5083718;27;45720;-79
2022/02/21 03:23:00;;;;;;;;;1.33;1.33;;;;;-149.00;100.00;66333.84;5101915;27;45329;-78
2022/02/21 03:25:26;;;;;;;;;7.33;4.67;;;;;-149.00;100.00;66333.84;5083140;27;46441;-78
2022/02/21 03:27:51;;;;;;;;;4.33;3.00;;;;;-149.00;100.00;66333.84;5083357;27;47162;-79
2022/02/21 03:30:16;;;;;;;;;7.33;6.00;;;;;-149.00;100.00;66333.84;5101921;27;45336;-78
2022/02/21 03:32:42;;;;;;;;;4.00;3.33;;;;;-149.00;100.00;66333.84;5083651;27;45306;-78
2022/02/21 03:35:07;;;;;;;;;6.00;3.67;;;;;-149.00;100.00;66333.84;5101849;27;45271;-77
2022/02/21 03:37:35;;;;;;;;;5.67;3.67;;;;;-149.00;100.00;66333.84;5101491;27;47394;-78
2022/02/21 03:40:01;;;;;;;;;8.00;4.00;;;;;-149.00;100.00;66333.84;5083288;27;45855;-78
2022/02/21 03:42:26;;;;;;;;;5.33;4.00;;;;;-149.00;100.00;66333.84;5101480;27;45270;-79
2022/02/21 03:44:52;;;;;;;;;3.00;3.00;;;;;-149.00;100.00;66333.84;5083275;27;45825;-78
2022/02/21 03:47:17;;;;;;;;;7.33;5.00;;;;;-149.00;100.00;66333.84;5083222;27;48333;-79
2022/02/21 03:49:42;;;;;;;;;5.00;3.00;;;;;-149.00;100.00;66333.84;5101623;27;45223;-78
2022/02/21 03:52:08;;;;;;;;;7.67;3.00;;;;;-149.00;100.00;66333.84;5083415;27;45309;-79
2022/02/21 03:54:33;;;;;;;;;4.33;3.33;;;;;-149.00;100.00;66333.84;5101427;27;45213;-78
2022/02/21 03:56:58;;;;;;;;;3.33;2.67;;;;;-149.00;100.00;66333.84;5101381;27;45251;-78
2022/02/21 03:59:23;;;;;;;;;3.00;2.00;;;;;-149.00;100.00;66333.84;5084672;27;45280;-78
2022/02/21 04:01:49;;;;;;;;;3.67;3.00;;;;;-149.00;100.00;66333.84;5083208;27;45298;-79
2022/02/21 04:04:14;;;;;;;;;3.00;2.00;;;;;-149.00;100.00;66333.84;5083943;27;46088;-78
2022/02/21 04:06:41;;;;;;;;;4.00;3.00;;;;;-149.00;100.00;66333.84;5083655;27;47376;-79
2022/02/21 04:09:06;;;;;;;;;4.00;4.00;;;;;-149.00;100.00;66333.84;5102600;27;45338;-78
2022/02/21 04:11:32;;;;;;;;;5.00;5.00;;;;;-149.00;100.00;66333.84;5083683;27;45304;-79
2022/02/21 04:13:57;;;;;;;;;5.33;4.33;;;;;-149.00;100.00;66333.84;5101848;27;45237;-79
2022/02/21 04:16:23;;;;;;;;;7.00;4.00;;;;;-149.00;100.00;66333.84;5084072;27;47419;-78
2022/02/21 04:18:48;;;;;;;;;5.33;2.33;;;;;-149.00;100.00;66333.84;5102320;27;45459;-80
2022/02/21 04:21:13;;;;;;;;;5.00;4.00;;;;;-149.00;100.00;66333.84;5102579;27;45239;-80
2022/02/21 04:23:39;;;;;;;;;3.33;1.00;;;;;-149.00;100.00;66333.84;5084615;27;47336;-79
2022/02/21 04:26:04;;;;;;;;;7.67;4.33;;;;;-149.00;100.00;66333.84;5101927;27;45265;-77
2022/02/21 04:28:29;;;;;;;;;4.00;3.00;;;;;-149.00;100.00;66333.84;5084598;27;45947;-79
2022/02/21 04:30:55;;;;;;;;;4.33;3.00;;;;;-149.00;100.00;66333.84;5084909;27;45724;-79
2022/02/21 04:33:20;;;;;;;;;5.33;2.00;;;;;-149.00;100.00;66333.84;5083872;27;47427;-79
2022/02/21 04:35:45;;;;;;;;;5.67;3.00;;;;;-149.00;100.00;66333.84;5103340;27;45371;-79
2022/02/21 04:38:12;;;;;;;;;3.33;3.33;;;;;-149.00;100.00;66333.84;5083619;27;45984;-79
2022/02/21 04:40:38;;;;;;;;;3.00;3.00;;;;;-149.00;100.00;66333.84;5102284;27;45212;-78
2022/02/21 04:43:03;;;;;;;;;2.33;2.00;;;;;-149.00;100.00;66333.84;5083593;27;47002;-79
2022/02/21 04:45:29;;;;;;;;;3.67;2.67;;;;;-149.00;100.00;66333.84;5101437;27;46282;-78
2022/02/21 04:47:55;;;;;;;;;3.67;2.67;;;;;-149.00;100.00;66333.84;5101496;27;45305;-79
2022/02/21 04:50:20;;;;;;;;;4.00;3.00;;;;;-149.00;100.00;66333.84;5102781;27;45145;-78
2022/02/21 04:52:46;;;;;;;;;5.33;5.00;;;;;-149.00;100.00;66333.84;5102251;27;45172;-78
2022/02/21 04:55:13;;;;;;;;;6.00;2.67;;;;;-149.00;100.00;66333.84;5082368;27;48186;-79
2022/02/21 04:57:39;;;;;;;;;6.00;4.67;;;;;-149.00;100.00;66333.84;5100794;27;45335;-79
2022/02/21 05:00:08;;;;;;;;;3.00;2.00;;;;;-149.00;100.00;66333.84;5101415;27;45284;-79
2022/02/21 05:02:34;;;;;;;;;1.67;1.67;;;;;-149.00;100.00;66333.84;5100785;27;45232;-79
2022/02/21 05:05:00;;;;;;;;;3.00;3.00;;;;;-149.00;100.00;66333.84;5101762;27;45569;-79
2022/02/21 05:07:25;;;;;;;;;2.67;2.67;;;;;-149.00;100.00;66333.84;5101159;27;45323;-79
2022/02/21 05:09:50;;;;;;;;;6.33;2.33;;;;;-149.00;100.00;66333.84;5082467;27;45290;-79
2022/02/21 05:12:16;;;;;;;;;4.00;3.00;;;;;-149.00;100.00;66333.84;5100494;27;45395;-79
2022/02/21 05:14:41;;;;;;;;;4.00;4.00;;;;;-149.00;100.00;66333.84;5100223;27;45951;-79
2022/02/21 05:17:07;;;;;;;;;2.00;1.33;;;;;-149.00;100.00;66333.84;5100650;27;45288;-79
2022/02/21 05:19:33;;;;;;;;;4.00;4.00;;;;;-149.00;100.00;66333.84;5061928;28;45247;-79
2022/02/21 05:21:58;;;;;;;;;5.00;3.67;;;;;-149.00;100.00;66333.84;5084305;28;45479;-79
2022/02/21 05:24:25;;;;;;;;;2.67;2.33;;;;;-149.00;100.00;66333.84;5083679;28;45366;-79
2022/02/21 05:26:50;;;;;;;;;2.00;2.00;;;;;-149.00;100.00;66333.84;5084657;28;45371;-79
2022/02/21 05:29:15;;;;;;;;;6.00;1.67;;;;;-149.00;100.00;66333.84;5086069;28;45278;-79
2022/02/21 05:31:41;;;;;;;;;1.67;1.00;;;;;-149.00;100.00;66333.84;5084854;28;45248;-79
2022/02/21 05:34:06;;;;;;;;;3.33;3.33;;;;;-149.00;100.00;66333.84;5084160;28;45604;-80
2022/02/21 05:36:32;;;;;;;;;1.00;1.00;;;;;-149.00;100.00;66333.84;5083998;28;45225;-77
2022/02/21 05:38:57;;;;;;;;;3.00;2.00;;;;;-149.00;100.00;66333.84;5082353;27;45277;-78
2022/02/21 05:41:22;;;;;;;;;3.67;2.33;;;;;-149.00;100.00;66333.84;5086647;27;46186;-79
2022/02/21 05:43:48;;;;;;;;;1.67;1.00;;;;;-149.00;100.00;66333.84;5105245;27;45585;-80
2022/02/21 05:46:13;;;;;;;;;1.00;0.00;;;;;-149.00;100.00;66333.84;5103963;27;45191;-80
2022/02/21 05:48:39;;;;;;;;;2.67;2.00;;;;;-149.00;100.00;66333.84;5086920;27;45237;-80
2022/02/21 05:51:04;;;;;;;;;3.33;2.00;;;;;-149.00;100.00;66333.84;5104164;27;45738;-79
2022/02/21 05:53:30;;;;;;;;;3.00;2.67;;;;;-149.00;100.00;66333.84;5103528;27;45279;-80
2022/02/21 05:55:55;;;;;;;;;2.33;1.00;;;;;-149.00;100.00;66333.84;5084644;27;45247;-79
2022/02/21 05:58:21;;;;;;;;;2.33;2.00;;;;;-149.00;100.00;66333.84;5085037;27;45377;-78
2022/02/21 06:00:48;;;;;;;;;5.00;3.67;;;;;-149.00;100.00;66333.84;5103548;27;45564;-79
2022/02/21 06:03:14;;;;;;;;;1.33;1.00;;;;;-149.00;100.00;66333.84;5103854;27;45298;-80
2022/02/21 06:05:39;;;;;;;;;4.67;2.67;;;;;-149.00;100.00;66333.84;5085015;27;45741;-80
2022/02/21 06:08:05;;;;;;;;;4.00;2.00;;;;;-149.00;100.00;66333.84;5085414;27;45352;-80
2022/02/21 06:10:30;;;;;;;;;3.67;2.00;;;;;-149.00;100.00;66333.84;5085049;27;45878;-80
2022/02/21 06:12:55;;;;;;;;;2.00;2.00;;;;;-149.00;100.00;66333.84;5104368;27;45341;-79
2022/02/21 06:15:21;;;;;;;;;3.33;2.00;;;;;-149.00;100.00;66333.84;5104981;27;45291;-80
2022/02/21 06:17:46;;;;;;;;;1.67;1.67;;;;;-149.00;100.00;66333.84;5085380;27;45463;-79
2022/02/21 06:20:11;;;;;;;;;1.00;1.00;;;;;-149.00;100.00;66333.84;5104418;27;45523;-79
2022/02/21 06:22:37;;;;;;;;;2.33;2.00;;;;;-149.00;100.00;66333.84;5104162;27;46013;-79
2022/02/21 06:25:03;;;;;;;;;4.00;2.00;;;;;-149.00;100.00;66333.84;5104326;27;45156;-79
2022/02/21 06:27:29;;;;;;;;;1.33;1.00;;;;;-149.00;100.00;66333.84;5085914;27;45439;-81
2022/02/21 06:29:54;;;;;;;;;2.67;2.33;;;;;-149.00;100.00;66333.84;5104414;27;45474;-80
2022/02/21 06:32:20;;;;;;;;;3.00;1.00;;;;;-149.00;100.00;66333.84;5085451;27;48139;-81
2022/02/21 06:34:48;;;;;;;;;1.00;1.00;;;;;-149.00;100.00;66333.84;5103766;27;45231;-80
2022/02/21 06:37:14;;;;;;;;;2.33;2.33;;;;;-149.00;100.00;66333.84;5104439;27;45313;-80
2022/02/21 06:39:39;;;;;;;;;1.00;1.00;;;;;-149.00;100.00;66333.84;5102792;27;46137;-80
2022/02/21 06:42:05;;;;;;;;;1.00;0.33;;;;;-149.00;100.00;66333.84;5103422;27;45331;-80
2022/02/21 06:44:30;;;;;;;;;3.00;1.00;;;;;-149.00;100.00;66333.84;5084871;27;45750;-79
2022/02/21 06:46:55;;;;;;;;;0.00;0.00;;;;;-149.00;100.00;66333.84;5106085;27;45272;-80
2022/02/21 06:49:21;;;;;;;;;2.00;1.67;;;;;-149.00;100.00;66333.84;5105273;27;45316;-80
2022/02/21 06:51:46;;;;;;;;;1.67;0.00;;;;;-149.00;100.00;66333.84;5085693;27;47142;-80
2022/02/21 06:54:11;;;;;;;;;1.00;1.00;;;;;-149.00;100.00;66333.84;5104832;27;45191;-80
2022/02/21 06:56:37;;;;;;;;;1.00;1.00;;;;;-149.00;100.00;66333.84;5105057;27;45263;-79
2022/02/21 06:59:02;;;;;;;;;0.00;0.00;;;;;-149.00;100.00;66333.84;5088161;27;47108;-79
2022/02/21 07:01:28;;;;;;;;;3.00;1.33;;;;;-149.00;100.00;66333.84;5105729;27;45145;-80
2022/02/21 07:03:54;;;;;;;;;1.00;1.00;;;;;-149.00;100.00;66333.84;5089178;27;45267;-80
2022/02/21 07:06:20;;;;;;;;;1.00;1.00;;;;;-149.00;100.00;66333.84;5087572;27;45367;-81
2022/02/21 07:08:45;;;;;;;;;1.67;1.00;;;;;-149.00;100.00;66333.84;5106056;27;45263;-80
2022/02/21 07:11:11;;;;;;;;;2.67;1.00;;;;;-149.00;100.00;66333.84;5086137;27;47986;-80
2022/02/21 07:13:37;;;;;;;;;1.00;1.00;;;;;-149.00;100.00;66333.84;5103048;27;45323;-80
2022/02/21 07:16:03;;;;;;;;;3.00;3.00;;;;;-149.00;100.00;66333.84;5103284;27;45326;-80
2022/02/21 07:18:29;;;;;;;;;1.00;1.00;;;;;-149.00;100.00;66333.84;5102606;27;46539;-81
2022/02/21 07:20:54;;;;;;;;;1.00;1.00;;;;;-149.00;100.00;66333.84;5085505;27;48312;-80
2022/02/21 07:23:20;;;;;;;;;1.67;1.67;;;;;-149.00;100.00;66333.84;5104163;27;45296;-81
2022/02/21 07:25:45;;;;;;;;;3.00;3.00;;;;;-149.00;100.00;66333.84;5091840;27;45827;-81
2022/02/21 07:28:11;;;;;;;;;1.67;1.67;;;;;-149.00;100.00;66333.84;5105162;27;45402;-80
2022/02/21 07:30:36;;;;;;;;;2.67;2.67;;;;;-149.00;100.00;66333.84;5103261;27;46007;-80
2022/02/21 07:33:02;;;;;;;;;2.00;2.00;;;;;-149.00;100.00;66333.84;5085420;27;45605;-81
2022/02/21 07:35:27;;;;;;;;;2.33;2.00;;;;;-149.00;100.00;66333.84;5103286;27;45251;-81
2022/02/21 07:37:54;;;;;;;;;2.67;2.00;;;;;-149.00;100.00;66333.84;5085100;27;47012;-79
2022/02/21 07:40:19;;;;;;;;;2.00;1.00;;;;;-149.00;100.00;66333.84;5084227;27;47579;-79
2022/02/21 07:42:53;;;;;;;;;1.67;0.00;;;;;-149.00;100.00;66333.84;5083482;27;45356;-79
2022/02/21 07:45:22;;;;;;;;;4.33;2.67;;;;;-149.00;100.00;66333.84;5102566;27;45513;-79
2022/02/21 07:47:57;;;;;;;;;1.67;1.67;;;;;-149.00;100.00;66333.84;5083606;27;45978;-80
2022/02/21 07:50:25;;;;;;;;;1.67;1.67;;;;;-149.00;100.00;66333.84;5101464;27;45421;-80
2022/02/21 07:52:52;;;;;;;;;2.33;2.33;;;;;-149.00;100.00;66333.84;5101804;27;45373;-78
2022/02/21 07:55:18;;;;;;;;;2.00;2.00;;;;;-149.00;100.00;66333.84;5101345;27;45319;-79
2022/02/21 07:57:44;;;;;;;;;1.33;1.00;;;;;-149.00;100.00;66333.84;5101435;27;45412;-82
2022/02/21 08:00:12;;;;;;;;;3.00;2.33;;;;;-149.00;100.00;66333.84;5101606;27;45280;-82
2022/02/21 08:02:38;;;;;;;;;4.00;2.67;;;;;-149.00;100.00;66333.84;5101333;27;45400;-81
2022/02/21 08:05:05;;;;;;;;;4.33;2.67;;;;;-149.00;100.00;66333.84;5083023;27;45354;-83
2022/02/21 08:07:31;;;;;;;;;3.00;1.00;;;;;-149.00;100.00;66333.84;5101206;27;45430;-82
2022/02/21 08:09:56;;;;;;;;;3.00;1.33;;;;;-149.00;100.00;66333.84;5082015;27;47207;-82
2022/02/21 08:12:21;;;;;;;;;2.33;2.00;;;;;-149.00;100.00;66333.84;5100646;27;45235;-82
2022/02/21 08:14:47;;;;;;;;;2.67;2.00;;;;;-149.00;100.00;66333.84;5097774;27;45480;-78
2022/02/21 08:17:12;;;;;;;;;4.00;3.00;;;;;-149.00;100.00;66333.84;5079620;27;46119;-76
2022/02/21 08:19:38;;;;;;;;;4.33;3.00;;;;;-149.00;100.00;66333.84;5093749;27;46301;-78
2022/02/21 08:22:04;;;;;;;;;4.00;2.00;;;;;-149.00;100.00;66333.84;5088182;27;45360;-79
2022/02/21 08:24:29;;;;;;;;;2.00;2.00;;;;;-149.00;100.00;66333.84;5092529;27;45589;-79
2022/02/21 08:26:55;;;;;;;;;3.33;2.33;;;;;-149.00;100.00;66333.84;5114478;27;45228;-77
2022/02/21 08:29:20;;;;;;;;;3.67;3.00;;;;;-149.00;100.00;66333.84;5081666;27;47110;-77
2022/02/21 08:31:46;;;;;;;;;3.33;2.33;;;;;-149.00;100.00;66333.84;5082590;27;46028;-77
2022/02/21 08:34:12;;;;;;;;;5.67;2.00;;;;;-149.00;100.00;66333.84;5082361;27;45407;-78
2022/02/21 08:36:37;;;;;;;;;3.00;3.00;;;;;-149.00;100.00;66333.84;5082272;27;45359;-77
2022/02/21 08:39:03;;;;;;;;;3.00;2.00;;;;;-149.00;100.00;66333.84;5101309;27;45354;-78
2022/02/21 08:41:28;;;;;;;;;4.67;2.00;;;;;-149.00;100.00;66333.84;5100563;27;45325;-78
2022/02/21 08:43:54;;;;;;;;;5.00;4.67;;;;;-149.00;100.00;66333.84;5100984;27;45260;-77
2022/02/21 08:46:20;;;;;;;;;4.67;3.33;;;;;-149.00;100.00;66333.84;5082327;27;46043;-78
2022/02/21 08:48:45;;;;;;;;;3.00;2.00;;;;;-149.00;100.00;66333.84;5100862;27;46299;-78
2022/02/21 08:51:11;;;;;;;;;5.00;3.33;;;;;-149.00;100.00;66333.84;5081570;27;46067;-78
2022/02/21 08:53:36;;;;;;;;;5.67;4.00;;;;;-149.00;100.00;66333.84;5100726;27;45726;-78
2022/02/21 08:56:03;;;;;;;;;5.00;3.00;;;;;-149.00;100.00;66333.84;5091986;27;45230;-77
2022/02/21 08:58:28;;;;;;;;;4.00;4.00;;;;;-149.00;100.00;66333.84;5117462;27;45255;-76
2022/02/21 09:00:54;;;;;;;;;5.00;4.00;;;;;-149.00;100.00;66333.84;5121285;27;45274;-76
2022/02/21 09:03:19;;;;;;;;;6.33;4.00;;;;;-149.00;100.00;66333.84;5121198;27;45281;-78
2022/02/21 09:05:44;;;;;;;;;2.33;2.00;;;;;-149.00;100.00;66333.84;5102496;27;46781;-79
2022/02/21 09:08:10;;;;;;;;;3.00;2.33;;;;;-149.00;100.00;66333.84;5121039;27;45347;-78
2022/02/21 09:10:35;;;;;;;;;3.67;2.00;;;;;-149.00;100.00;66333.84;5120975;27;45240;-78
2022/02/21 09:13:02;;;;;;;;;4.67;4.00;;;;;-149.00;100.00;66333.84;5102620;27;45335;-78
2022/02/21 09:15:27;;;;;;;;;4.67;4.00;;;;;-149.00;100.00;66333.84;5120829;27;45327;-78
2022/02/21 09:17:53;;;;;;;;;2.33;2.33;;;;;-149.00;100.00;66333.84;5095866;27;48238;-79
2022/02/21 09:20:19;;;;;;;;;2.33;2.33;;;;;-149.00;100.00;66333.84;5082013;27;45948;-78
2022/02/21 09:22:45;;;;;;;;;3.00;3.00;;;;;-149.00;100.00;66333.84;5100124;27;45507;-79
2022/02/21 09:25:11;;;;;;;;;2.33;2.33;;;;;-149.00;100.00;66333.84;5100002;27;45331;-79
2022/02/21 09:27:37;;;;;;;;;2.33;2.00;;;;;-149.00;100.00;66333.84;5100142;27;45245;-78
2022/02/21 09:30:07;;;;;;;;;3.33;3.33;;;;;-149.00;100.00;66333.84;5081642;27;45267;-78
2022/02/21 09:32:32;;;;;;;;;4.00;4.00;;;;;-149.00;100.00;66333.84;5100090;27;45305;-78
2022/02/21 09:34:57;;;;;;;;;3.00;2.67;;;;;-149.00;100.00;66333.84;5100016;27;45313;-79
2022/02/21 09:37:25;;;;;;;;;3.00;2.67;;;;;-149.00;100.00;66333.84;5099769;27;45329;-77
2022/02/21 09:39:51;;;;;;;;;3.67;2.00;;;;;-149.00;100.00;66333.84;5100009;27;45302;-76
2022/02/21 09:42:16;;;;;;;;;6.00;4.67;;;;;-149.00;100.00;66333.84;5099852;27;45230;-76
2022/02/21 09:44:42;;;;;;;;;4.00;3.00;;;;;-149.00;100.00;66333.84;5100023;27;45172;-79
2022/02/21 09:47:07;;;;;;;;;1.33;1.33;;;;;-149.00;100.00;66333.84;5099956;27;45308;-76
2022/02/21 09:49:32;;;;;;;;;4.00;4.00;;;;;-149.00;100.00;66333.84;5099982;27;45185;-78
2022/02/21 09:51:58;;;;;;;;;4.00;3.00;;;;;-149.00;100.00;66333.84;5096880;27;45357;-76
2022/02/21 09:54:24;;;;;;;;;7.00;4.67;;;;;-149.00;100.00;66333.84;5082614;27;47109;-76
2022/02/21 09:56:51;;;;;;;;;2.33;2.33;;;;;-149.00;100.00;66333.84;5098686;27;45610;-76
2022/02/21 09:59:17;;;;;;;;;3.67;3.33;;;;;-149.00;100.00;66333.84;5099234;27;45358;-80
2022/02/21 10:01:44;;;;;;;;;5.67;3.33;;;;;-149.00;100.00;66333.84;5117755;27;45478;-78
2022/02/21 10:04:12;;;;;;;;;4.67;3.00;;;;;-149.00;100.00;66333.84;5110243;27;45713;-79
2022/02/21 10:06:37;;;;;;;;;5.00;3.67;;;;;-149.00;100.00;66333.84;5087233;27;47877;-78
2022/02/21 10:09:09;;;;;;;;;6.00;3.00;;;;;-149.00;100.00;66333.84;5070300;27;45494;-78
2022/02/21 10:11:42;;;;;;;;;4.00;3.00;;;;;-149.00;100.00;66333.84;5094468;27;45280;-77
2022/02/21 10:14:13;;;;;;;;;3.67;3.00;;;;;-149.00;100.00;66333.84;5095471;27;47344;-77
2022/02/21 10:16:42;;;;;;;;;3.00;3.00;;;;;-149.00;100.00;66333.84;5084629;27;46996;-78
2022/02/21 10:19:13;;;;;;;;;3.67;2.00;;;;;-149.00;100.00;66333.84;5102854;27;45307;-77
2022/02/21 10:22:01;;;;;;;;;5.33;4.00;;;;;-149.00;100.00;66333.84;5103033;27;45161;-75
2022/02/21 10:24:29;;;;;;;;;3.00;2.67;;;;;-149.00;100.00;66333.84;5102969;27;45543;-79
2022/02/21 10:26:56;;;;;;;;;4.33;3.33;;;;;-149.00;100.00;66333.84;5102751;27;45621;-77
2022/02/21 10:29:22;;;;;;;;;6.00;4.33;;;;;-149.00;100.00;66333.84;5085115;27;45346;-80
2022/02/21 10:31:48;;;;;;;;;3.00;3.00;;;;;-149.00;100.00;66333.84;5086109;27;45251;-76
2022/02/21 10:34:13;;;;;;;;;5.67;3.67;;;;;-149.00;100.00;66333.84;5106305;27;45280;-76
2022/02/21 10:36:41;;;;;;;;;2.33;2.33;;;;;-149.00;100.00;66333.84;5123350;27;46439;-77
2022/02/21 10:39:13;;;;;;;;;3.00;3.00;;;;;-149.00;100.00;66333.84;5105490;27;45354;-79
2022/02/21 10:41:46;;;;;;;;;8.00;4.00;;;;;-149.00;100.00;66333.84;5102459;27;45225;-78
2022/02/21 10:44:20;;;;;;;;;3.00;3.00;;;;;-149.00;100.00;66333.84;5091860;27;45637;-78
2022/02/21 10:47:04;;;;;;;;;2.67;2.67;;;;;-149.00;100.00;66333.84;5084873;27;45597;-76
2022/02/21 10:49:34;;;;;;;;;4.33;2.00;;;;;-149.00;100.00;66333.84;5103158;27;45457;-77
2022/02/21 10:52:01;;;;;;;;;5.00;3.00;;;;;-149.00;100.00;66333.84;5076555;27;45258;-76
2022/02/21 10:54:45;;;;;;;;;6.00;4.67;;;;;-149.00;100.00;66333.84;5102374;27;45200;-77
2022/02/21 10:57:13;;;;;;;;;4.00;3.33;;;;;-149.00;100.00;66333.84;5083886;27;47531;-78
2022/02/21 10:59:38;;;;;;;;;4.00;4.00;;;;;-149.00;100.00;66333.84;5102352;27;45319;-78
2022/02/21 11:02:07;;;;;;;;;7.00;4.67;;;;;-149.00;100.00;66333.84;5102458;27;45343;-78
2022/02/21 11:04:37;;;;;;;;;5.33;3.67;;;;;-149.00;100.00;66333.84;5102552;27;45232;-77